Terminal Aerodrome Forecast
Issued by NWS

Home | Current Version | Previous Version | Text Only | Print | Product List | Glossary On
Versions: 1 2 3 4 5 6 7 8 9 10 11 12 13 14 15 16 17 18 19 20 21 22 23 24 25 26 27 28 29 30
000
FTUS41 KBOX 301737
TAFBAF
TAF
KBAF 301737Z 3018/3118 31008KT P6SM FEW020 FEW040 OVC090
     FM302100 32011G22KT P6SM OVC020
     FM310000 32014G26KT P6SM OVC040
     FM311000 32014G26KT P6SM SCT200=

USA.gov is the U.S. government's official web portal to all federal, state and local government web resources and services.